首页
METAR-TAF:

METAR-TAF

机场 :

Alton / 圣路易斯, 伊利诺伊州, 美国

纬度: 38-54N, 经度: 090-03W, 海拔: 166米

当前天气观测

该预报发布于30分钟前的07:35 UTC
静风
温度 6°C
湿度 93%
气压 1020 hPa
能見度: 16.1公里
阴天层高于2800英尺

METAR: KALN 050735Z AUTO 00000KT 10SM OVC028 06/05 A3011 RMK AO2 T00630051

时间: 03:05 (08:05 UTC)


TAF: 丢失

超过4000个机场的气象观测和天气预报(METAR&TAF报告)。

可查询的气象台以黄色和红色小点在地图上表示。

将鼠标移到小点上方,可查看气象台名称。

然后点击查看天气观测和预报。

如需切换地图:点击带黑十字的绿色按钮放大地图;点击带横线的绿色按钮缩小地图;或者点击绿色箭头查看邻近地区的地图。


METAR-TAF: